Time;durP1;ratioP1;P1;durP2;ratioP2;P2;SDS_P1;SDS_P2;PMS_P1;PMS_P2;Temp;Humidity;BMP_temperature;BMP_pressure;BME280_temperature;BME280_humidity;BME280_pressure;Samples;Min_cycle;Max_cycle;Signal;HPM_P1;HPM_P2
2022/12/28 00:00:51;;;;;;;48.97;24.08;;;26.80;99.90;;;;;;5072878;28;20024;-66
2022/12/28 00:03:18;;;;;;;84.35;38.97;;;26.70;99.90;;;;;;5072696;28;20048;-65
2022/12/28 00:05:45;;;;;;;60.42;29.10;;;26.80;99.90;;;;;;5072705;28;20021;-66
2022/12/28 00:08:11;;;;;;;50.03;25.85;;;26.80;99.90;;;;;;5072716;28;20047;-66
2022/12/28 00:10:38;;;;;;;68.78;31.27;;;26.80;99.90;;;;;;5072774;28;20505;-66
2022/12/28 00:13:04;;;;;;;68.95;37.35;;;26.90;99.90;;;;;;5072428;28;20037;-66
2022/12/28 00:15:31;;;;;;;87.00;43.72;;;26.90;99.90;;;;;;5072603;28;20055;-66
2022/12/28 00:17:57;;;;;;;86.68;44.30;;;27.00;99.90;;;;;;5072769;28;20056;-65
2022/12/28 00:20:24;;;;;;;89.95;41.53;;;27.00;99.90;;;;;;5076128;28;20028;-66
2022/12/28 00:22:50;;;;;;;65.63;33.33;;;27.00;99.90;;;;;;5076105;28;20070;-66
2022/12/28 00:25:17;;;;;;;54.92;27.38;;;27.00;99.90;;;;;;5076077;28;20031;-66
2022/12/28 00:27:43;;;;;;;46.42;23.65;;;27.00;99.90;;;;;;5079901;28;20065;-66
2022/12/28 00:30:11;;;;;;;41.25;22.42;;;27.00;99.90;;;;;;5092089;28;20036;-66
2022/12/28 00:32:37;;;;;;;49.08;24.52;;;27.00;99.90;;;;;;5076016;28;20067;-67
2022/12/28 00:35:04;;;;;;;48.83;24.05;;;27.00;99.90;;;;;;5086535;28;20021;-66
2022/12/28 00:37:32;;;;;;;47.10;21.17;;;27.00;99.90;;;;;;5075915;28;20100;-66
2022/12/28 00:39:58;;;;;;;47.80;24.95;;;27.00;99.90;;;;;;5075797;28;20024;-67
2022/12/28 00:42:25;;;;;;;41.22;23.95;;;27.00;99.90;;;;;;5075742;28;20539;-66
2022/12/28 00:44:51;;;;;;;47.03;24.67;;;27.00;99.90;;;;;;5081449;28;20017;-66
2022/12/28 00:47:18;;;;;;;44.67;23.60;;;27.10;99.90;;;;;;5096018;28;20107;-66
2022/12/28 00:49:44;;;;;;;50.50;23.75;;;27.10;99.90;;;;;;5095674;28;20370;-66
2022/12/28 00:52:11;;;;;;;58.03;26.15;;;27.20;99.90;;;;;;5095941;28;20020;-66
2022/12/28 00:54:37;;;;;;;55.13;29.05;;;27.20;99.90;;;;;;5095686;28;20075;-66
2022/12/28 00:57:04;;;;;;;53.20;27.38;;;27.20;99.90;;;;;;5095791;28;20024;-67
2022/12/28 00:59:30;;;;;;;49.17;30.08;;;27.20;99.90;;;;;;5095644;28;20028;-67
2022/12/28 01:01:57;;;;;;;59.50;34.63;;;27.20;99.90;;;;;;5095751;28;20441;-66
2022/12/28 01:04:23;;;;;;;63.20;34.80;;;27.20;99.90;;;;;;5095499;28;20149;-66
2022/12/28 01:06:50;;;;;;;59.17;33.53;;;27.30;99.90;;;;;;5095536;28;20413;-66
2022/12/28 01:09:16;;;;;;;73.32;36.92;;;27.30;99.90;;;;;;5084113;28;20028;-66
2022/12/28 01:11:43;;;;;;;74.60;40.20;;;27.30;99.90;;;;;;5075265;28;20029;-66
2022/12/28 01:14:09;;;;;;;66.15;35.28;;;27.30;99.90;;;;;;5075013;28;20048;-67
2022/12/28 01:16:36;;;;;;;72.80;39.83;;;27.30;99.90;;;;;;5075319;28;20032;-67
2022/12/28 01:19:05;;;;;;;71.05;44.20;;;27.40;99.90;;;;;;5075060;28;20492;-66
2022/12/28 01:21:34;;;;;;;70.70;40.20;;;27.40;99.90;;;;;;5075070;28;20077;-67
2022/12/28 01:24:03;;;;;;;66.40;38.08;;;27.40;99.90;;;;;;5075014;28;20044;-66
2022/12/28 01:26:29;;;;;;;72.30;37.80;;;27.50;99.90;;;;;;5074874;28;20032;-69
2022/12/28 01:28:57;;;;;;;79.25;42.05;;;27.50;99.90;;;;;;5074923;28;20032;-68
2022/12/28 01:31:23;;;;;;;65.22;33.72;;;27.50;99.90;;;;;;5074396;28;20024;-68
2022/12/28 01:33:50;;;;;;;50.83;26.33;;;27.50;99.90;;;;;;5074557;28;20028;-68
2022/12/28 01:36:18;;;;;;;48.25;22.70;;;27.50;99.90;;;;;;5075131;28;20039;-68
2022/12/28 01:38:45;;;;;;;43.67;21.77;;;27.50;99.90;;;;;;5074593;28;20055;-68
2022/12/28 01:41:16;;;;;;;36.40;18.67;;;27.50;99.90;;;;;;5074782;28;20469;-67
2022/12/28 01:43:45;;;;;;;41.35;20.65;;;27.60;99.90;;;;;;5074676;28;20020;-68
2022/12/28 01:46:17;;;;;;;63.55;29.13;;;27.60;99.90;;;;;;5074675;28;20021;-67
2022/12/28 01:48:55;;;;;;;60.30;27.10;;;27.70;99.90;;;;;;5074464;28;20027;-68
2022/12/28 01:51:23;;;;;;;52.30;24.70;;;27.80;99.90;;;;;;5074472;28;20029;-69
2022/12/28 01:53:52;;;;;;;62.08;31.90;;;27.80;99.90;;;;;;5074457;28;20020;-68
2022/12/28 01:56:21;;;;;;;56.53;30.00;;;27.80;99.90;;;;;;5074447;28;20470;-68
2022/12/28 01:58:48;;;;;;;46.20;23.00;;;27.90;99.90;;;;;;5074336;28;20024;-68
2022/12/28 02:01:16;;;;;;;54.20;25.95;;;28.00;99.90;;;;;;5074208;28;20048;-68
2022/12/28 02:03:43;;;;;;;62.22;26.02;;;28.00;99.90;;;;;;5074283;28;20027;-68
2022/12/28 02:06:12;;;;;;;40.13;22.65;;;28.10;99.90;;;;;;5074263;28;20021;-67
2022/12/28 02:08:58;;;;;;;33.17;15.48;;;28.10;99.90;;;;;;5074175;28;20028;-67
2022/12/28 02:11:25;;;;;;;40.60;18.25;;;28.10;99.90;;;;;;5073792;28;20424;-68
2022/12/28 02:13:52;;;;;;;423.48;249.13;;;28.20;99.90;;;;;;5073843;28;20044;-66
2022/12/28 02:16:19;;;;;;;465.13;291.40;;;28.20;99.90;;;;;;5074259;28;20103;-67
2022/12/28 02:18:47;;;;;;;242.38;148.23;;;28.30;99.90;;;;;;5074025;28;20500;-67
2022/12/28 02:21:27;;;;;;;40.08;19.80;;;28.30;99.90;;;;;;5073747;28;20109;-67
2022/12/28 02:24:03;;;;;;;136.95;68.93;;;28.40;99.90;;;;;;5073780;28;20013;-67
2022/12/28 02:26:37;;;;;;;50.65;24.33;;;28.40;99.90;;;;;;5092692;28;20030;-67
2022/12/28 02:29:13;;;;;;;152.05;67.30;;;28.50;99.90;;;;;;5094206;28;20055;-65
2022/12/28 02:31:47;;;;;;;50.33;20.17;;;28.70;99.90;;;;;;5094033;28;20020;-65
2022/12/28 02:34:21;;;;;;;401.05;214.57;;;28.70;99.90;;;;;;5093956;28;20091;-67
2022/12/28 02:36:58;;;;;;;201.82;103.80;;;28.80;99.90;;;;;;5093944;28;20024;-67
2022/12/28 02:39:37;;;;;;;139.57;76.15;;;28.90;99.90;;;;;;5093732;28;20334;-67
2022/12/28 02:42:08;;;;;;;124.20;65.40;;;29.00;99.90;;;;;;5093126;28;20024;-67
2022/12/28 02:50:13;;;;;;;44.60;18.40;;;29.30;99.90;;;;;;5088827;28;20036;-67
2022/12/28 02:52:43;;;;;;;35.65;15.52;;;29.20;99.90;;;;;;5082315;28;20029;-67
2022/12/28 02:58:20;;;;;;;48.80;19.30;;;29.30;99.90;;;;;;5073037;28;20032;-67
2022/12/28 03:01:12;;;;;;;38.42;16.80;;;29.20;99.90;;;;;;5073405;28;20027;-68
2022/12/28 03:04:07;;;;;;;31.98;14.73;;;29.20;99.90;;;;;;5073298;28;20024;-68
2022/12/28 03:10:12;;;;;;;37.58;13.75;;;29.20;99.90;;;;;;5073037;28;20029;-68
2022/12/28 03:12:58;;;;;;;42.55;17.00;;;29.30;99.90;;;;;;4972227;28;20206;-68
2022/12/28 03:15:29;;;;;;;35.08;15.35;;;29.20;99.90;;;;;;4953104;29;20050;-68
2022/12/28 03:32:10;;;;;;;29.38;15.10;;;29.30;99.90;;;;;;4840576;29;20049;-67
2022/12/28 03:34:37;;;;;;;29.83;11.95;;;29.30;99.90;;;;;;4840203;29;20049;-69
2022/12/28 03:37:24;;;;;;;31.67;14.70;;;29.20;99.90;;;;;;4840015;29;20052;-69
2022/12/28 03:39:52;;;;;;;55.70;29.35;;;29.30;99.90;;;;;;4839913;29;20128;-70
2022/12/28 03:45:38;;;;;;;34.83;14.90;;;29.40;99.90;;;;;;4803384;29;20122;-71
2022/12/28 03:48:05;;;;;;;61.78;30.35;;;29.40;99.90;;;;;;4808514;29;20051;-71
2022/12/28 03:50:40;;;;;;;38.70;17.85;;;29.50;99.90;;;;;;4812598;29;20378;-70
2022/12/28 03:53:08;;;;;;;55.53;27.63;;;29.40;99.90;;;;;;4813669;29;20042;-71
2022/12/28 03:55:36;;;;;;;63.15;33.60;;;29.50;99.90;;;;;;4800509;29;20529;-71
2022/12/28 03:58:04;;;;;;;82.28;39.58;;;29.50;99.90;;;;;;4814544;29;20074;-69
2022/12/28 04:00:31;;;;;;;66.80;32.58;;;29.50;99.90;;;;;;4792343;29;20055;-69
2022/12/28 04:02:58;;;;;;;52.75;25.10;;;29.50;99.90;;;;;;4757357;30;20040;-69
2022/12/28 04:05:24;;;;;;;50.63;24.15;;;29.50;99.90;;;;;;4742978;29;20422;-67
2022/12/28 04:07:51;;;;;;;38.60;18.27;;;29.40;99.90;;;;;;4843999;29;20479;-70
2022/12/28 04:10:17;;;;;;;38.40;19.08;;;29.50;99.90;;;;;;4953669;29;20126;-70
2022/12/28 04:12:44;;;;;;;46.17;18.80;;;29.50;99.90;;;;;;4956731;28;20038;-69
2022/12/28 04:15:10;;;;;;;31.20;16.27;;;29.50;99.90;;;;;;4975506;28;20074;-70
2022/12/28 04:17:37;;;;;;;37.42;16.95;;;29.50;99.90;;;;;;4975436;28;20066;-70
2022/12/28 04:20:04;;;;;;;35.53;17.63;;;29.50;99.90;;;;;;4975614;28;20023;-70
2022/12/28 04:22:31;;;;;;;33.40;16.77;;;29.50;99.90;;;;;;5023389;28;20032;-70
2022/12/28 04:24:57;;;;;;;35.45;15.45;;;29.60;99.90;;;;;;5056221;28;20017;-68
2022/12/28 04:27:24;;;;;;;27.08;14.05;;;29.60;99.90;;;;;;5056182;28;20032;-67
2022/12/28 04:29:50;;;;;;;32.88;17.13;;;29.60;99.90;;;;;;5055954;28;20481;-69
2022/12/28 04:32:17;;;;;;;30.25;13.73;;;29.70;99.90;;;;;;5056090;28;20029;-67
2022/12/28 04:34:43;;;;;;;40.60;18.92;;;29.70;99.90;;;;;;5056139;28;20024;-70
2022/12/28 04:37:10;;;;;;;28.55;16.20;;;29.70;99.90;;;;;;5055888;28;20599;-70
2022/12/28 04:39:36;;;;;;;43.17;19.40;;;29.80;99.90;;;;;;5055942;28;20021;-72
2022/12/28 04:42:03;;;;;;;34.25;15.85;;;29.80;99.90;;;;;;5054812;28;20017;-71
2022/12/28 04:44:31;;;;;;;28.08;14.05;;;29.90;99.90;;;;;;5055680;28;20017;-72
2022/12/28 04:46:57;;;;;;;30.02;14.52;;;30.00;99.90;;;;;;5055715;28;20025;-72
2022/12/28 04:49:24;;;;;;;24.83;12.73;;;30.20;99.90;;;;;;5063586;28;20024;-71
2022/12/28 04:51:50;;;;;;;30.27;14.38;;;30.30;99.90;;;;;;5058764;28;20021;-71
2022/12/28 04:54:17;;;;;;;23.00;13.55;;;30.30;99.90;;;;;;5055587;28;20052;-71
2022/12/28 04:56:43;;;;;;;35.08;15.90;;;30.40;99.90;;;;;;5055538;28;20401;-69
2022/12/28 04:59:10;;;;;;;28.25;14.32;;;30.50;99.90;;;;;;5055272;28;20059;-67
2022/12/28 05:01:37;;;;;;;24.23;13.57;;;30.50;99.90;;;;;;5055414;28;20415;-71
2022/12/28 05:04:03;;;;;;;35.63;15.63;;;30.50;99.90;;;;;;5055360;28;20025;-70
2022/12/28 05:06:30;;;;;;;33.40;13.98;;;30.50;99.90;;;;;;5054250;28;20020;-70
2022/12/28 05:08:57;;;;;;;24.25;13.40;;;30.50;99.90;;;;;;5055109;28;20017;-71
2022/12/28 05:11:28;;;;;;;37.28;14.27;;;30.50;99.90;;;;;;5055134;28;20040;-70
2022/12/28 05:13:55;;;;;;;27.90;14.67;;;30.50;99.90;;;;;;5065405;28;20048;-71
2022/12/28 05:16:24;;;;;;;21.50;13.05;;;30.60;99.90;;;;;;5075042;28;20020;-70
2022/12/28 05:18:51;;;;;;;22.58;13.15;;;30.70;99.90;;;;;;5074783;28;20025;-70
2022/12/28 05:21:23;;;;;;;33.42;16.05;;;30.70;99.90;;;;;;5074763;28;20017;-70
2022/12/28 05:23:50;;;;;;;25.92;14.32;;;30.80;99.90;;;;;;5073584;28;20016;-69
2022/12/28 05:26:20;;;;;;;25.15;12.85;;;30.90;99.90;;;;;;5074944;28;20025;-70
2022/12/28 05:28:46;;;;;;;24.83;13.30;;;30.80;99.90;;;;;;5074727;28;20052;-70
2022/12/28 05:31:15;;;;;;;26.65;13.15;;;30.80;99.90;;;;;;5074767;28;20017;-69
2022/12/28 05:33:43;;;;;;;29.13;14.35;;;30.80;99.90;;;;;;5074783;28;20035;-70
2022/12/28 05:36:15;;;;;;;26.52;14.13;;;30.80;99.90;;;;;;5074562;28;20020;-69
2022/12/28 05:38:42;;;;;;;25.88;12.63;;;30.80;99.90;;;;;;5074524;28;20362;-69
2022/12/28 05:41:11;;;;;;;28.65;13.55;;;30.80;99.90;;;;;;5074449;28;20016;-70
2022/12/28 05:43:38;;;;;;;28.35;12.93;;;30.80;99.90;;;;;;5074698;28;20401;-68
2022/12/28 05:46:08;;;;;;;32.20;14.15;;;30.80;99.90;;;;;;5082119;28;20155;-67
2022/12/28 05:48:36;;;;;;;24.15;12.95;;;30.90;99.90;;;;;;5077377;28;20028;-69
2022/12/28 05:51:06;;;;;;;31.67;14.55;;;30.90;99.90;;;;;;5080140;28;20048;-67
2022/12/28 05:53:34;;;;;;;28.30;13.48;;;30.90;99.90;;;;;;5078228;28;20469;-68
2022/12/28 05:56:11;;;;;;;26.42;12.88;;;30.90;99.90;;;;;;5074476;28;20040;-68
2022/12/28 05:58:38;;;;;;;30.70;16.77;;;30.90;99.90;;;;;;5074306;28;20056;-68
2022/12/28 06:01:11;;;;;;;24.10;14.57;;;30.90;99.90;;;;;;5079878;28;20032;-68
2022/12/28 06:03:39;;;;;;;25.08;13.13;;;30.90;99.90;;;;;;5089853;28;20105;-68
2022/12/28 06:06:08;;;;;;;23.17;12.32;;;30.90;99.90;;;;;;5087918;28;20112;-68
2022/12/28 06:08:38;;;;;;;23.30;13.32;;;30.90;99.90;;;;;;5078198;28;20052;-68
2022/12/28 06:11:07;;;;;;;24.05;12.32;;;31.00;99.90;;;;;;5080391;28;20405;-68
2022/12/28 06:13:34;;;;;;;24.50;13.50;;;30.90;99.90;;;;;;5078322;28;20052;-68
2022/12/28 06:16:12;;;;;;;24.25;12.32;;;30.90;99.90;;;;;;5079645;28;20100;-67
2022/12/28 06:18:39;;;;;;;28.33;11.65;;;30.90;99.90;;;;;;5077842;28;20466;-67
2022/12/28 06:21:09;;;;;;;22.17;11.50;;;30.90;99.90;;;;;;5074148;28;20141;-66
2022/12/28 06:23:36;;;;;;;24.55;13.30;;;30.80;99.90;;;;;;5074262;28;20438;-67
2022/12/28 06:26:05;;;;;;;18.23;11.40;;;30.80;99.90;;;;;;5074123;28;20370;-68
2022/12/28 06:28:32;;;;;;;35.80;13.23;;;30.80;99.90;;;;;;5073892;28;20023;-67
2022/12/28 06:31:05;;;;;;;21.98;12.45;;;30.80;99.90;;;;;;5074042;28;20029;-68
2022/12/28 06:33:32;;;;;;;25.58;13.40;;;30.90;99.90;;;;;;5073901;28;20028;-67
2022/12/28 06:35:59;;;;;;;25.75;11.68;;;30.90;99.90;;;;;;5073776;28;20031;-68
2022/12/28 06:38:28;;;;;;;22.83;11.95;;;30.90;99.90;;;;;;5073745;28;20024;-68
2022/12/28 06:40:54;;;;;;;27.40;12.85;;;30.90;99.90;;;;;;5073676;28;20036;-67
2022/12/28 06:43:21;;;;;;;20.45;11.02;;;30.90;99.90;;;;;;5073457;28;20393;-67
2022/12/28 06:45:58;;;;;;;26.55;14.13;;;30.90;99.90;;;;;;5087328;28;20429;-68
2022/12/28 06:48:25;;;;;;;26.05;14.45;;;30.90;99.90;;;;;;5082566;28;20489;-68
2022/12/28 06:50:55;;;;;;;27.98;14.50;;;30.80;99.90;;;;;;5087613;28;20097;-67
2022/12/28 06:53:23;;;;;;;25.35;12.50;;;30.80;99.90;;;;;;5081939;28;20028;-68
2022/12/28 06:55:58;;;;;;;30.60;14.60;;;30.80;99.90;;;;;;5081848;28;20569;-69
2022/12/28 06:58:27;;;;;;;26.15;14.18;;;30.80;99.90;;;;;;5082631;28;20393;-68
2022/12/28 07:00:54;;;;;;;37.28;20.67;;;30.90;99.90;;;;;;5085435;28;20032;-68
2022/12/28 07:03:23;;;;;;;26.75;15.38;;;30.90;99.90;;;;;;5086568;28;20008;-68
2022/12/28 07:05:49;;;;;;;30.23;16.77;;;30.90;99.90;;;;;;5083616;28;20078;-69
2022/12/28 07:08:17;;;;;;;35.85;18.75;;;30.90;99.90;;;;;;5082336;28;20473;-69
2022/12/28 07:10:43;;;;;;;43.33;19.48;;;31.00;99.90;;;;;;5075861;28;20029;-70
2022/12/28 07:13:10;;;;;;;38.58;19.15;;;31.00;99.90;;;;;;5074641;28;20036;-70
2022/12/28 07:15:36;;;;;;;43.67;22.33;;;31.00;99.90;;;;;;5080847;28;20024;-70
2022/12/28 07:18:03;;;;;;;37.75;22.00;;;31.00;99.90;;;;;;5076781;28;20096;-70
2022/12/28 07:20:29;;;;;;;48.92;27.65;;;30.90;99.90;;;;;;5075296;28;20023;-70
2022/12/28 07:22:56;;;;;;;55.95;30.90;;;30.90;99.90;;;;;;5075902;28;20469;-70
2022/12/28 07:25:22;;;;;;;44.58;24.55;;;30.90;99.90;;;;;;5079600;28;20380;-69
2022/12/28 07:27:49;;;;;;;59.80;33.50;;;30.90;99.90;;;;;;5082634;28;20020;-70
2022/12/28 07:30:15;;;;;;;46.45;25.25;;;30.90;99.90;;;;;;5085819;28;20149;-70
2022/12/28 07:32:42;;;;;;;41.55;21.50;;;30.90;99.90;;;;;;5088080;28;20080;-70
2022/12/28 07:35:09;;;;;;;34.20;21.50;;;30.90;99.90;;;;;;5086054;28;20020;-70
2022/12/28 07:37:35;;;;;;;53.25;24.92;;;31.00;99.90;;;;;;5090377;28;20110;-69
2022/12/28 07:40:02;;;;;;;42.30;19.45;;;31.00;99.90;;;;;;5086708;28;20023;-70
2022/12/28 07:42:29;;;;;;;49.85;23.67;;;31.00;99.90;;;;;;5088183;28;20043;-70
2022/12/28 07:44:56;;;;;;;34.75;19.40;;;31.00;99.90;;;;;;5088201;28;20016;-70
2022/12/28 07:47:22;;;;;;;37.35;20.15;;;31.00;99.90;;;;;;5088016;28;20107;-71
2022/12/28 07:49:49;;;;;;;38.58;20.50;;;31.00;99.90;;;;;;5089455;28;20019;-70
2022/12/28 07:52:15;;;;;;;33.80;16.90;;;30.90;99.90;;;;;;5093763;28;20027;-70
2022/12/28 07:54:42;;;;;;;42.40;19.95;;;30.90;99.90;;;;;;5085576;28;20052;-69
2022/12/28 07:57:08;;;;;;;43.58;19.83;;;31.00;99.90;;;;;;5078912;28;20016;-69
2022/12/28 07:59:35;;;;;;;31.17;16.55;;;31.00;99.90;;;;;;5085510;28;20056;-68
2022/12/28 08:02:01;;;;;;;28.48;15.05;;;31.00;99.90;;;;;;5080089;28;20461;-68
2022/12/28 08:04:28;;;;;;;29.65;16.67;;;31.00;99.90;;;;;;5086428;28;20038;-68
2022/12/28 08:06:54;;;;;;;24.10;13.38;;;31.00;99.90;;;;;;5076524;28;20040;-68
2022/12/28 08:09:21;;;;;;;20.23;10.88;;;31.10;99.90;;;;;;5085467;28;20028;-69
2022/12/28 08:11:48;;;;;;;21.48;10.60;;;31.00;99.90;;;;;;5095774;28;20107;-69
2022/12/28 08:14:15;;;;;;;32.97;13.43;;;31.00;99.90;;;;;;5088994;28;20048;-69
2022/12/28 08:16:43;;;;;;;25.38;14.85;;;31.00;99.90;;;;;;5081645;28;20419;-68
2022/12/28 08:19:10;;;;;;;34.35;16.33;;;31.00;99.90;;;;;;5090067;28;20189;-68
2022/12/28 08:21:40;;;;;;;28.08;14.93;;;31.00;99.90;;;;;;5086355;28;20028;-65
2022/12/28 08:24:08;;;;;;;18.88;11.77;;;31.00;99.90;;;;;;5083400;28;20150;-65
2022/12/28 08:26:38;;;;;;;29.80;16.42;;;31.00;99.90;;;;;;5096109;28;20024;-68
2022/12/28 08:29:09;;;;;;;23.48;14.40;;;30.90;99.90;;;;;;5088325;28;20032;-68
2022/12/28 08:31:38;;;;;;;32.10;14.82;;;30.90;99.90;;;;;;5081104;28;20024;-68
2022/12/28 08:34:07;;;;;;;22.73;12.45;;;30.90;99.90;;;;;;5089125;28;20058;-69
2022/12/28 08:36:34;;;;;;;29.80;15.15;;;30.80;99.90;;;;;;5083890;28;20031;-68
2022/12/28 08:39:01;;;;;;;28.95;14.30;;;30.80;99.90;;;;;;5087000;28;20032;-64
2022/12/28 08:41:28;;;;;;;25.48;13.63;;;30.80;99.90;;;;;;5074873;28;20029;-65
2022/12/28 08:43:55;;;;;;;25.85;13.82;;;30.80;99.90;;;;;;5084558;28;20039;-65
2022/12/28 08:46:28;;;;;;;25.83;13.57;;;30.80;99.90;;;;;;5080036;28;20024;-64
2022/12/28 08:48:56;;;;;;;33.83;13.60;;;30.80;99.90;;;;;;5086822;28;20024;-65
2022/12/28 08:51:38;;;;;;;20.80;11.50;;;30.80;99.90;;;;;;5075910;28;20473;-66
2022/12/28 08:54:05;;;;;;;24.50;12.25;;;30.70;99.90;;;;;;5087203;28;20034;-65
2022/12/28 08:56:36;;;;;;;25.88;13.07;;;30.70;99.90;;;;;;5075686;28;20455;-67
2022/12/28 08:59:03;;;;;;;25.38;11.82;;;30.70;99.90;;;;;;5086917;28;20064;-66
2022/12/28 09:01:33;;;;;;;26.75;12.45;;;30.70;99.90;;;;;;5075572;28;20025;-65
2022/12/28 09:04:01;;;;;;;24.60;12.38;;;30.70;99.90;;;;;;5084283;28;20583;-65
2022/12/28 09:06:31;;;;;;;24.35;12.35;;;30.70;99.90;;;;;;5095355;28;20464;-69
2022/12/28 09:08:59;;;;;;;30.48;15.82;;;30.70;99.90;;;;;;5089167;28;20040;-68
2022/12/28 09:11:26;;;;;;;24.45;13.93;;;30.70;99.90;;;;;;5076124;28;20024;-68
2022/12/28 09:13:53;;;;;;;34.40;17.38;;;30.80;99.90;;;;;;5084389;28;20043;-67
2022/12/28 09:16:24;;;;;;;29.95;14.10;;;30.80;99.90;;;;;;5077062;28;20017;-69
2022/12/28 09:18:55;;;;;;;22.63;12.90;;;30.80;99.90;;;;;;5084005;28;20039;-68
2022/12/28 09:21:23;;;;;;;26.50;13.68;;;30.80;99.90;;;;;;5076730;28;20090;-65
2022/12/28 09:23:49;;;;;;;35.38;17.23;;;30.80;99.90;;;;;;5083703;28;20024;-66
2022/12/28 09:26:18;;;;;;;34.45;19.02;;;30.80;99.90;;;;;;5077504;28;20024;-66
2022/12/28 09:28:49;;;;;;;37.85;18.63;;;30.90;99.90;;;;;;5082377;28;20388;-65
2022/12/28 09:31:16;;;;;;;27.45;16.10;;;30.90;99.90;;;;;;5078005;28;20024;-66
2022/12/28 09:36:34;;;;;;;41.15;20.15;;;30.90;99.90;;;;;;5081183;28;20043;-67
2022/12/28 09:39:04;;;;;;;36.03;15.63;;;30.90;99.90;;;;;;5087791;28;20509;-66
2022/12/28 09:41:32;;;;;;;29.55;14.82;;;30.80;99.90;;;;;;5084907;28;20111;-67
2022/12/28 09:44:10;;;;;;;24.17;13.70;;;30.70;99.90;;;;;;5087792;28;20019;-67
2022/12/28 09:46:40;;;;;;;24.77;14.25;;;30.70;99.90;;;;;;5084653;28;20044;-68
2022/12/28 09:49:14;;;;;;;30.00;15.90;;;30.70;99.90;;;;;;5086433;28;20381;-68
2022/12/28 09:51:59;;;;;;;37.67;19.20;;;30.70;99.90;;;;;;5084697;28;20496;-68
2022/12/28 09:54:26;;;;;;;34.67;17.23;;;30.70;99.90;;;;;;5085640;28;20531;-66
2022/12/28 09:56:53;;;;;;;29.73;17.27;;;30.70;99.90;;;;;;5083762;28;20020;-68
2022/12/28 09:59:23;;;;;;;28.42;15.25;;;30.70;99.90;;;;;;5084741;28;20138;-68
2022/12/28 10:01:57;;;;;;;29.33;17.15;;;30.60;99.90;;;;;;5086487;28;20024;-68
2022/12/28 10:04:24;;;;;;;34.33;18.17;;;30.60;99.90;;;;;;5084703;28;20020;-69
2022/12/28 10:06:50;;;;;;;32.50;16.27;;;30.60;99.90;;;;;;5086814;28;20035;-69
2022/12/28 10:09:26;;;;;;;37.50;21.75;;;30.60;99.90;;;;;;5090257;28;20024;-68
2022/12/28 10:11:53;;;;;;;42.33;24.23;;;30.60;99.90;;;;;;5083937;28;20059;-68
2022/12/28 10:14:21;;;;;;;38.67;20.70;;;30.60;99.90;;;;;;5089051;28;20047;-67
2022/12/28 10:16:48;;;;;;;44.70;25.30;;;30.60;99.90;;;;;;5084798;28;20160;-68
2022/12/28 10:19:20;;;;;;;46.20;25.60;;;30.60;99.90;;;;;;5086522;28;20135;-68
2022/12/28 10:21:58;;;;;;;39.30;22.60;;;30.50;99.90;;;;;;5085074;28;20161;-69
2022/12/28 10:24:25;;;;;;;39.75;18.63;;;30.50;99.90;;;;;;5086378;28;20020;-69
2022/12/28 10:26:53;;;;;;;37.40;19.13;;;30.60;99.90;;;;;;5085895;28;20065;-66
2022/12/28 10:29:23;;;;;;;42.15;20.13;;;30.60;99.90;;;;;;5087392;28;20028;-66
2022/12/28 10:32:02;;;;;;;35.13;18.90;;;30.60;99.90;;;;;;5077042;28;20358;-67
2022/12/28 10:34:31;;;;;;;45.88;24.23;;;30.50;99.90;;;;;;5086665;28;20164;-67
2022/12/28 10:37:05;;;;;;;47.70;26.27;;;30.60;99.90;;;;;;5074118;28;20058;-67
2022/12/28 10:39:33;;;;;;;40.92;23.27;;;30.50;99.90;;;;;;5085320;28;20050;-67
2022/12/28 10:42:01;;;;;;;44.53;21.17;;;30.50;99.90;;;;;;5073492;28;20048;-66
2022/12/28 10:44:32;;;;;;;45.45;26.67;;;30.50;99.90;;;;;;5084717;28;20529;-69
2022/12/28 10:47:04;;;;;;;48.55;30.23;;;30.50;99.90;;;;;;5073533;28;20024;-67
2022/12/28 10:49:49;;;;;;;63.38;34.47;;;30.60;99.90;;;;;;5079179;28;20111;-67
2022/12/28 10:52:16;;;;;;;119.32;67.10;;;30.50;99.90;;;;;;5076908;28;20032;-67
2022/12/28 10:54:43;;;;;;;102.38;53.92;;;30.50;99.90;;;;;;5073642;28;20024;-66
2022/12/28 10:57:29;;;;;;;96.90;51.60;;;30.50;99.90;;;;;;5073658;28;20056;-67
2022/12/28 11:00:15;;;;;;;104.35;47.50;;;30.50;99.90;;;;;;5073764;28;20488;-67
2022/12/28 11:02:42;;;;;;;120.50;60.45;;;30.50;99.90;;;;;;5072987;28;20078;-67
2022/12/28 11:05:19;;;;;;;116.00;62.45;;;30.50;99.90;;;;;;5073492;28;20024;-67
2022/12/28 11:07:45;;;;;;;168.50;83.75;;;30.50;99.90;;;;;;5073657;28;20647;-67
2022/12/28 11:10:26;;;;;;;142.18;75.97;;;30.40;99.90;;;;;;5073599;28;20066;-67
2022/12/28 11:13:01;;;;;;;135.32;69.82;;;30.40;99.90;;;;;;5072968;28;20031;-68
2022/12/28 11:15:31;;;;;;;113.55;60.53;;;30.40;99.90;;;;;;5073096;28;20397;-68
2022/12/28 11:18:12;;;;;;;117.93;60.58;;;30.40;99.90;;;;;;5072943;28;20466;-68
2022/12/28 11:20:43;;;;;;;105.83;49.50;;;30.30;99.90;;;;;;5073347;28;20032;-66
2022/12/28 11:23:24;;;;;;;100.90;50.42;;;30.30;99.90;;;;;;5072902;28;20029;-66
2022/12/28 11:25:51;;;;;;;103.35;55.80;;;30.30;99.90;;;;;;5072959;28;20028;-66
2022/12/28 11:28:21;;;;;;;103.20;57.13;;;30.20;99.90;;;;;;5073055;28;20031;-65
2022/12/28 11:30:49;;;;;;;110.30;61.35;;;30.20;99.90;;;;;;5078212;28;20059;-70
2022/12/28 11:33:40;;;;;;;106.05;59.92;;;30.20;99.90;;;;;;5092022;28;20035;-66
2022/12/28 11:36:15;;;;;;;122.78;61.63;;;30.20;99.90;;;;;;4971089;28;20043;-68
2022/12/28 11:38:46;;;;;;;104.90;62.85;;;30.20;99.90;;;;;;4971835;28;20039;-68
2022/12/28 11:41:41;;;;;;;115.60;63.40;;;30.30;99.90;;;;;;4972505;28;20453;-68
2022/12/28 11:44:20;;;;;;;202.02;137.88;;;30.20;99.90;;;;;;4972455;28;20038;-69
2022/12/28 11:47:02;;;;;;;357.90;256.25;;;30.20;99.90;;;;;;4972233;28;20031;-70
2022/12/28 11:49:32;;;;;;;119.80;72.67;;;30.20;99.90;;;;;;4972122;28;20511;-70
2022/12/28 11:52:22;;;;;;;83.00;46.67;;;30.20;99.90;;;;;;4972209;28;20259;-70
2022/12/28 11:54:54;;;;;;;87.20;51.58;;;30.20;99.90;;;;;;4970819;28;20039;-69
2022/12/28 11:57:41;;;;;;;96.43;58.33;;;30.20;99.90;;;;;;4971966;28;20043;-66
2022/12/28 12:00:19;;;;;;;108.68;61.53;;;30.10;99.90;;;;;;4952592;29;20094;-67
2022/12/28 12:02:51;;;;;;;96.47;54.60;;;30.20;99.90;;;;;;4967293;28;20400;-69
2022/12/28 12:05:38;;;;;;;72.70;42.17;;;30.10;99.90;;;;;;4973292;28;20034;-68
2022/12/28 12:08:14;;;;;;;74.65;40.85;;;30.10;99.90;;;;;;4973341;28;20027;-67
2022/12/28 12:10:43;;;;;;;67.10;37.13;;;30.00;99.90;;;;;;4973366;28;20035;-69
2022/12/28 12:13:29;;;;;;;67.88;37.35;;;30.00;99.90;;;;;;5026341;28;20428;-69
2022/12/28 12:16:19;;;;;;;60.17;31.52;;;30.00;99.90;;;;;;4995232;28;20037;-69
2022/12/28 12:18:49;;;;;;;61.83;31.33;;;30.00;99.90;;;;;;4995955;28;20030;-66
2022/12/28 12:21:28;;;;;;;81.65;39.97;;;30.00;99.90;;;;;;4995709;28;20030;-68
2022/12/28 12:24:20;;;;;;;38.97;17.88;;;29.80;99.90;;;;;;4995644;28;20077;-67
2022/12/28 12:26:51;;;;;;;36.42;11.98;;;28.90;99.90;;;;;;5000814;28;20029;-72
2022/12/28 12:29:23;;;;;;;36.03;13.18;;;27.90;99.90;;;;;;4999484;28;20041;-72
2022/12/28 12:32:12;;;;;;;25.23;9.35;;;27.60;99.90;;;;;;4994546;28;20500;-70
2022/12/28 12:34:47;;;;;;;19.40;8.52;;;27.30;99.90;;;;;;4995853;28;20038;-74
2022/12/28 12:37:22;;;;;;;22.55;9.30;;;27.00;99.90;;;;;;4994242;28;20372;-73
2022/12/28 12:40:03;;;;;;;20.75;9.35;;;26.90;99.90;;;;;;4986672;28;20073;-72
2022/12/28 12:42:49;;;;;;;20.67;8.35;;;27.00;99.90;;;;;;4985187;28;20106;-73
2022/12/28 12:45:28;;;;;;;21.15;7.07;;;27.10;99.90;;;;;;4987133;28;20388;-71
2022/12/28 12:48:15;;;;;;;16.98;6.43;;;27.30;99.90;;;;;;5085023;28;20350;-68
2022/12/28 12:50:56;;;;;;;9.85;4.82;;;27.30;99.90;;;;;;5075630;28;20412;-71
2022/12/28 12:53:33;;;;;;;16.95;5.75;;;27.50;99.90;;;;;;5079337;28;20032;-67
2022/12/28 12:56:10;;;;;;;45.65;30.73;;;27.50;99.90;;;;;;5080051;28;20059;-69
2022/12/28 12:58:47;;;;;;;123.03;87.40;;;27.50;99.90;;;;;;5095574;28;20027;-71
2022/12/28 13:01:42;;;;;;;84.80;59.33;;;27.40;99.90;;;;;;5094974;28;20085;-69
2022/12/28 13:04:19;;;;;;;66.93;40.42;;;27.40;99.90;;;;;;5075710;28;20074;-70
2022/12/28 13:06:46;;;;;;;55.28;36.33;;;27.40;99.90;;;;;;5083376;28;20062;-69
2022/12/28 13:09:18;;;;;;;19.30;9.75;;;27.40;99.90;;;;;;5094404;28;20028;-70
2022/12/28 13:11:45;;;;;;;12.95;5.68;;;27.40;99.90;;;;;;5094947;28;20072;-71
2022/12/28 13:14:19;;;;;;;11.43;4.68;;;27.30;99.90;;;;;;5095021;28;20040;-71